sensor_id;sensor_type;location;lat;lon;timestamp;temperature;humidity
14172;DHT22;7165;52.388;4.928;2022-12-18T00:02:18;-1.80;99.90
14172;DHT22;7165;52.388;4.928;2022-12-18T00:04:45;-1.80;99.90
14172;DHT22;7165;52.388;4.928;2022-12-18T00:07:12;-1.80;99.90
14172;DHT22;7165;52.388;4.928;2022-12-18T00:09:38;-1.80;99.90
14172;DHT22;7165;52.388;4.928;2022-12-18T00:12:05;-1.80;99.90
14172;DHT22;7165;52.388;4.928;2022-12-18T00:14:33;-1.80;99.90
14172;DHT22;7165;52.388;4.928;2022-12-18T00:17:01;-1.80;99.90
14172;DHT22;7165;52.388;4.928;2022-12-18T00:19:28;-1.80;99.90
14172;DHT22;7165;52.388;4.928;2022-12-18T00:21:54;-1.80;99.90
14172;DHT22;7165;52.388;4.928;2022-12-18T00:24:21;-1.70;99.90
14172;DHT22;7165;52.388;4.928;2022-12-18T00:26:48;-1.70;99.90
14172;DHT22;7165;52.388;4.928;2022-12-18T00:29:14;-1.70;99.90
14172;DHT22;7165;52.388;4.928;2022-12-18T00:31:42;-1.60;99.90
14172;DHT22;7165;52.388;4.928;2022-12-18T00:34:11;-1.60;99.90
14172;DHT22;7165;52.388;4.928;2022-12-18T00:36:39;-1.70;99.90
14172;DHT22;7165;52.388;4.928;2022-12-18T00:39:06;-1.70;99.90
14172;DHT22;7165;52.388;4.928;2022-12-18T00:41:33;-1.70;99.90
14172;DHT22;7165;52.388;4.928;2022-12-18T00:44:18;-1.70;99.90
14172;DHT22;7165;52.388;4.928;2022-12-18T00:46:45;-1.80;99.90
14172;DHT22;7165;52.388;4.928;2022-12-18T00:49:14;-1.80;99.90
14172;DHT22;7165;52.388;4.928;2022-12-18T00:51:41;-1.70;99.90
14172;DHT22;7165;52.388;4.928;2022-12-18T00:54:07;-1.70;99.90
14172;DHT22;7165;52.388;4.928;2022-12-18T00:56:35;-1.70;99.90
14172;DHT22;7165;52.388;4.928;2022-12-18T00:59:03;-1.70;99.90
14172;DHT22;7165;52.388;4.928;2022-12-18T01:01:30;-1.70;99.90
14172;DHT22;7165;52.388;4.928;2022-12-18T01:03:58;-1.70;99.90
14172;DHT22;7165;52.388;4.928;2022-12-18T01:06:27;-1.70;99.90
14172;DHT22;7165;52.388;4.928;2022-12-18T01:08:53;-1.70;99.90
14172;DHT22;7165;52.388;4.928;2022-12-18T01:11:20;-1.80;99.90
14172;DHT22;7165;52.388;4.928;2022-12-18T01:13:47;-1.80;99.90
14172;DHT22;7165;52.388;4.928;2022-12-18T01:16:15;-1.80;99.90
14172;DHT22;7165;52.388;4.928;2022-12-18T01:18:43;-1.70;99.90
14172;DHT22;7165;52.388;4.928;2022-12-18T01:21:11;-1.80;99.90
14172;DHT22;7165;52.388;4.928;2022-12-18T01:23:40;-1.80;99.90
14172;DHT22;7165;52.388;4.928;2022-12-18T01:26:15;-1.90;99.90
14172;DHT22;7165;52.388;4.928;2022-12-18T01:28:42;-1.90;99.90
14172;DHT22;7165;52.388;4.928;2022-12-18T01:31:15;-1.90;99.90
14172;DHT22;7165;52.388;4.928;2022-12-18T01:33:42;-1.90;99.90
14172;DHT22;7165;52.388;4.928;2022-12-18T01:36:14;-1.90;99.90
14172;DHT22;7165;52.388;4.928;2022-12-18T01:38:43;-2.00;99.90
14172;DHT22;7165;52.388;4.928;2022-12-18T01:41:09;-2.00;99.90
14172;DHT22;7165;52.388;4.928;2022-12-18T01:43:45;-2.00;99.90
14172;DHT22;7165;52.388;4.928;2022-12-18T01:46:14;-2.00;99.90
14172;DHT22;7165;52.388;4.928;2022-12-18T01:48:41;-2.00;99.90
14172;DHT22;7165;52.388;4.928;2022-12-18T01:51:10;-2.00;99.90
14172;DHT22;7165;52.388;4.928;2022-12-18T01:53:39;-2.00;99.90
14172;DHT22;7165;52.388;4.928;2022-12-18T01:56:08;-2.00;99.90
14172;DHT22;7165;52.388;4.928;2022-12-18T01:58:43;-2.00;99.90
14172;DHT22;7165;52.388;4.928;2022-12-18T02:01:12;-2.00;99.90
14172;DHT22;7165;52.388;4.928;2022-12-18T02:03:41;-2.00;99.90
14172;DHT22;7165;52.388;4.928;2022-12-18T02:06:13;-2.00;99.90
14172;DHT22;7165;52.388;4.928;2022-12-18T02:08:48;-2.00;99.90
14172;DHT22;7165;52.388;4.928;2022-12-18T02:11:26;-2.00;99.90
14172;DHT22;7165;52.388;4.928;2022-12-18T02:14:00;-2.10;99.90
14172;DHT22;7165;52.388;4.928;2022-12-18T02:16:37;-2.10;99.90
14172;DHT22;7165;52.388;4.928;2022-12-18T02:19:14;-2.10;99.90
14172;DHT22;7165;52.388;4.928;2022-12-18T02:21:48;-2.10;99.90
14172;DHT22;7165;52.388;4.928;2022-12-18T02:24:24;-2.10;99.90
14172;DHT22;7165;52.388;4.928;2022-12-18T02:26:58;-2.10;99.90
14172;DHT22;7165;52.388;4.928;2022-12-18T02:29:29;-2.10;99.90
14172;DHT22;7165;52.388;4.928;2022-12-18T02:31:58;-2.10;99.90
14172;DHT22;7165;52.388;4.928;2022-12-18T02:34:27;-2.10;99.90
14172;DHT22;7165;52.388;4.928;2022-12-18T02:36:56;-2.00;99.90
14172;DHT22;7165;52.388;4.928;2022-12-18T02:39:25;-2.00;99.90
14172;DHT22;7165;52.388;4.928;2022-12-18T02:41:53;-2.00;99.90
14172;DHT22;7165;52.388;4.928;2022-12-18T02:44:21;-2.10;99.90
14172;DHT22;7165;52.388;4.928;2022-12-18T02:46:50;-2.10;99.90
14172;DHT22;7165;52.388;4.928;2022-12-18T02:49:25;-2.10;99.90
14172;DHT22;7165;52.388;4.928;2022-12-18T02:51:56;-2.10;99.90
14172;DHT22;7165;52.388;4.928;2022-12-18T02:54:37;-2.10;99.90
14172;DHT22;7165;52.388;4.928;2022-12-18T02:57:13;-2.10;99.90
14172;DHT22;7165;52.388;4.928;2022-12-18T02:59:48;-2.20;99.90
14172;DHT22;7165;52.388;4.928;2022-12-18T03:02:20;-2.20;99.90
14172;DHT22;7165;52.388;4.928;2022-12-18T03:04:50;-2.20;99.90
14172;DHT22;7165;52.388;4.928;2022-12-18T03:07:23;-2.20;99.90
14172;DHT22;7165;52.388;4.928;2022-12-18T03:09:53;-2.30;99.90
14172;DHT22;7165;52.388;4.928;2022-12-18T03:12:27;-2.30;99.90
14172;DHT22;7165;52.388;4.928;2022-12-18T03:15:00;-2.30;99.90
14172;DHT22;7165;52.388;4.928;2022-12-18T03:17:30;-2.30;99.90
14172;DHT22;7165;52.388;4.928;2022-12-18T03:20:02;-2.30;99.90
14172;DHT22;7165;52.388;4.928;2022-12-18T03:22:31;-2.40;99.90
14172;DHT22;7165;52.388;4.928;2022-12-18T03:25:01;-2.50;99.90
14172;DHT22;7165;52.388;4.928;2022-12-18T03:27:30;-2.50;99.90
14172;DHT22;7165;52.388;4.928;2022-12-18T03:30:03;-2.50;99.90
14172;DHT22;7165;52.388;4.928;2022-12-18T03:32:37;-2.50;99.90
14172;DHT22;7165;52.388;4.928;2022-12-18T03:35:08;-2.40;99.90
14172;DHT22;7165;52.388;4.928;2022-12-18T03:37:36;-2.40;99.90
14172;DHT22;7165;52.388;4.928;2022-12-18T03:40:03;-2.50;99.90
14172;DHT22;7165;52.388;4.928;2022-12-18T03:42:38;-2.50;99.90
14172;DHT22;7165;52.388;4.928;2022-12-18T03:45:10;-2.50;99.90
14172;DHT22;7165;52.388;4.928;2022-12-18T03:47:43;-2.50;99.90
14172;DHT22;7165;52.388;4.928;2022-12-18T03:50:17;-2.60;99.90
14172;DHT22;7165;52.388;4.928;2022-12-18T03:52:49;-2.60;99.90
14172;DHT22;7165;52.388;4.928;2022-12-18T03:55:19;-2.60;99.90
14172;DHT22;7165;52.388;4.928;2022-12-18T03:57:48;-2.70;99.90
14172;DHT22;7165;52.388;4.928;2022-12-18T04:00:17;-2.70;99.90
14172;DHT22;7165;52.388;4.928;2022-12-18T04:02:47;-2.70;99.90
14172;DHT22;7165;52.388;4.928;2022-12-18T04:05:17;-2.70;99.90
14172;DHT22;7165;52.388;4.928;2022-12-18T04:07:45;-2.70;99.90
14172;DHT22;7165;52.388;4.928;2022-12-18T04:10:14;-2.70;99.90
14172;DHT22;7165;52.388;4.928;2022-12-18T04:12:41;-2.70;99.90
14172;DHT22;7165;52.388;4.928;2022-12-18T04:15:09;-2.60;99.90
14172;DHT22;7165;52.388;4.928;2022-12-18T04:17:38;-2.70;99.90
14172;DHT22;7165;52.388;4.928;2022-12-18T04:20:06;-2.70;99.90
14172;DHT22;7165;52.388;4.928;2022-12-18T04:22:33;-2.70;99.90
14172;DHT22;7165;52.388;4.928;2022-12-18T04:25:00;-2.70;99.90
14172;DHT22;7165;52.388;4.928;2022-12-18T04:27:27;-2.70;99.90
14172;DHT22;7165;52.388;4.928;2022-12-18T04:29:54;-2.70;99.90
14172;DHT22;7165;52.388;4.928;2022-12-18T04:32:21;-2.70;99.90
14172;DHT22;7165;52.388;4.928;2022-12-18T04:34:49;-2.80;99.90
14172;DHT22;7165;52.388;4.928;2022-12-18T04:37:16;-2.80;99.90
14172;DHT22;7165;52.388;4.928;2022-12-18T04:39:43;-2.80;99.90
14172;DHT22;7165;52.388;4.928;2022-12-18T04:42:09;-2.80;99.90
14172;DHT22;7165;52.388;4.928;2022-12-18T04:44:36;-2.80;99.90
14172;DHT22;7165;52.388;4.928;2022-12-18T04:47:03;-2.80;99.90
14172;DHT22;7165;52.388;4.928;2022-12-18T04:49:30;-2.80;99.90
14172;DHT22;7165;52.388;4.928;2022-12-18T04:51:58;-2.80;99.90
14172;DHT22;7165;52.388;4.928;2022-12-18T04:54:25;-2.80;99.90
14172;DHT22;7165;52.388;4.928;2022-12-18T04:56:51;-2.80;99.90
14172;DHT22;7165;52.388;4.928;2022-12-18T04:59:18;-2.80;99.90
14172;DHT22;7165;52.388;4.928;2022-12-18T05:01:45;-2.80;99.90
14172;DHT22;7165;52.388;4.928;2022-12-18T05:04:12;-2.80;99.90
14172;DHT22;7165;52.388;4.928;2022-12-18T05:06:38;-2.80;99.90
14172;DHT22;7165;52.388;4.928;2022-12-18T05:09:06;-2.80;99.90
14172;DHT22;7165;52.388;4.928;2022-12-18T05:11:36;-2.80;99.90
14172;DHT22;7165;52.388;4.928;2022-12-18T05:14:02;-2.80;99.90
14172;DHT22;7165;52.388;4.928;2022-12-18T05:16:29;-2.80;99.90
14172;DHT22;7165;52.388;4.928;2022-12-18T05:18:56;-2.80;99.90
14172;DHT22;7165;52.388;4.928;2022-12-18T05:21:22;-2.80;99.90
14172;DHT22;7165;52.388;4.928;2022-12-18T05:23:49;-2.80;99.90
14172;DHT22;7165;52.388;4.928;2022-12-18T05:26:18;-2.80;99.90
14172;DHT22;7165;52.388;4.928;2022-12-18T05:28:45;-2.80;99.90
14172;DHT22;7165;52.388;4.928;2022-12-18T05:31:12;-2.80;99.90
14172;DHT22;7165;52.388;4.928;2022-12-18T05:33:39;-2.80;99.90
14172;DHT22;7165;52.388;4.928;2022-12-18T05:36:08;-2.80;99.90
14172;DHT22;7165;52.388;4.928;2022-12-18T05:38:36;-2.80;99.90
14172;DHT22;7165;52.388;4.928;2022-12-18T05:41:04;-2.80;99.90
14172;DHT22;7165;52.388;4.928;2022-12-18T05:43:34;-2.80;99.90
14172;DHT22;7165;52.388;4.928;2022-12-18T05:46:03;-2.80;99.90
14172;DHT22;7165;52.388;4.928;2022-12-18T05:48:30;-2.80;99.90
14172;DHT22;7165;52.388;4.928;2022-12-18T05:51:04;-2.80;99.90
14172;DHT22;7165;52.388;4.928;2022-12-18T05:53:32;-2.80;99.90
14172;DHT22;7165;52.388;4.928;2022-12-18T05:56:00;-2.80;99.90
14172;DHT22;7165;52.388;4.928;2022-12-18T05:58:27;-2.80;99.90
14172;DHT22;7165;52.388;4.928;2022-12-18T06:00:56;-2.80;99.90
14172;DHT22;7165;52.388;4.928;2022-12-18T06:03:22;-2.80;99.90
14172;DHT22;7165;52.388;4.928;2022-12-18T06:05:49;-2.90;99.90
14172;DHT22;7165;52.388;4.928;2022-12-18T06:08:16;-2.90;99.90
14172;DHT22;7165;52.388;4.928;2022-12-18T06:10:49;-3.00;99.90
14172;DHT22;7165;52.388;4.928;2022-12-18T06:13:17;-3.00;99.90
14172;DHT22;7165;52.388;4.928;2022-12-18T06:15:44;-3.10;99.90
14172;DHT22;7165;52.388;4.928;2022-12-18T06:18:12;-3.10;99.90
14172;DHT22;7165;52.388;4.928;2022-12-18T06:20:38;-3.10;99.90
14172;DHT22;7165;52.388;4.928;2022-12-18T06:23:07;-3.10;99.90
14172;DHT22;7165;52.388;4.928;2022-12-18T06:25:37;-3.10;99.90
14172;DHT22;7165;52.388;4.928;2022-12-18T06:28:04;-3.20;99.90
14172;DHT22;7165;52.388;4.928;2022-12-18T06:30:31;-3.20;99.90
14172;DHT22;7165;52.388;4.928;2022-12-18T06:32:57;-3.20;99.90
14172;DHT22;7165;52.388;4.928;2022-12-18T06:35:25;-3.10;99.90
14172;DHT22;7165;52.388;4.928;2022-12-18T06:37:52;-3.10;99.90
14172;DHT22;7165;52.388;4.928;2022-12-18T06:40:19;-3.20;99.90
14172;DHT22;7165;52.388;4.928;2022-12-18T06:42:46;-3.10;99.90
14172;DHT22;7165;52.388;4.928;2022-12-18T06:45:12;-3.10;99.90
14172;DHT22;7165;52.388;4.928;2022-12-18T06:47:39;-3.10;99.90
14172;DHT22;7165;52.388;4.928;2022-12-18T06:50:07;-3.20;99.90
14172;DHT22;7165;52.388;4.928;2022-12-18T06:52:35;-3.20;99.90
14172;DHT22;7165;52.388;4.928;2022-12-18T06:55:02;-3.20;99.90
14172;DHT22;7165;52.388;4.928;2022-12-18T06:57:29;-3.20;99.90
14172;DHT22;7165;52.388;4.928;2022-12-18T06:59:56;-3.20;99.90
14172;DHT22;7165;52.388;4.928;2022-12-18T07:02:22;-3.20;99.90
14172;DHT22;7165;52.388;4.928;2022-12-18T07:04:49;-3.20;99.90
14172;DHT22;7165;52.388;4.928;2022-12-18T07:07:16;-3.20;99.90
14172;DHT22;7165;52.388;4.928;2022-12-18T07:09:44;-3.30;99.90
14172;DHT22;7165;52.388;4.928;2022-12-18T07:12:10;-3.30;99.90
14172;DHT22;7165;52.388;4.928;2022-12-18T07:14:37;-3.30;99.90
14172;DHT22;7165;52.388;4.928;2022-12-18T07:17:04;-3.30;99.90
14172;DHT22;7165;52.388;4.928;2022-12-18T07:19:30;-3.30;99.90
14172;DHT22;7165;52.388;4.928;2022-12-18T07:21:57;-3.30;99.90
14172;DHT22;7165;52.388;4.928;2022-12-18T07:24:24;-3.30;99.90
14172;DHT22;7165;52.388;4.928;2022-12-18T07:26:52;-3.30;99.90
14172;DHT22;7165;52.388;4.928;2022-12-18T07:29:18;-3.20;99.90
14172;DHT22;7165;52.388;4.928;2022-12-18T07:31:45;-3.20;99.90
14172;DHT22;7165;52.388;4.928;2022-12-18T07:34:12;-3.20;99.90
14172;DHT22;7165;52.388;4.928;2022-12-18T07:36:40;-3.20;99.90
14172;DHT22;7165;52.388;4.928;2022-12-18T07:39:07;-3.20;99.90
14172;DHT22;7165;52.388;4.928;2022-12-18T07:41:34;-3.20;99.90
14172;DHT22;7165;52.388;4.928;2022-12-18T07:44:02;-3.20;99.90
14172;DHT22;7165;52.388;4.928;2022-12-18T07:46:29;-3.20;99.90
14172;DHT22;7165;52.388;4.928;2022-12-18T07:48:55;-3.20;99.90
14172;DHT22;7165;52.388;4.928;2022-12-18T07:51:22;-3.10;99.90
14172;DHT22;7165;52.388;4.928;2022-12-18T07:53:48;-3.10;99.90
14172;DHT22;7165;52.388;4.928;2022-12-18T07:56:15;-3.10;99.90
14172;DHT22;7165;52.388;4.928;2022-12-18T07:58:42;-3.10;99.90
14172;DHT22;7165;52.388;4.928;2022-12-18T08:01:11;-3.10;99.90
14172;DHT22;7165;52.388;4.928;2022-12-18T08:03:39;-3.10;99.90
14172;DHT22;7165;52.388;4.928;2022-12-18T08:06:08;-3.10;99.90
14172;DHT22;7165;52.388;4.928;2022-12-18T08:08:35;-3.00;99.90
14172;DHT22;7165;52.388;4.928;2022-12-18T08:11:02;-3.10;99.90
14172;DHT22;7165;52.388;4.928;2022-12-18T08:13:29;-3.00;99.90
14172;DHT22;7165;52.388;4.928;2022-12-18T08:15:56;-3.00;99.90
14172;DHT22;7165;52.388;4.928;2022-12-18T08:18:25;-3.00;99.90
14172;DHT22;7165;52.388;4.928;2022-12-18T08:20:51;-2.90;99.90
14172;DHT22;7165;52.388;4.928;2022-12-18T08:23:18;-2.90;99.90
14172;DHT22;7165;52.388;4.928;2022-12-18T08:25:45;-2.90;99.90
14172;DHT22;7165;52.388;4.928;2022-12-18T08:28:12;-2.80;99.90
14172;DHT22;7165;52.388;4.928;2022-12-18T08:30:38;-2.80;99.90
14172;DHT22;7165;52.388;4.928;2022-12-18T08:33:05;-2.80;99.90
14172;DHT22;7165;52.388;4.928;2022-12-18T08:35:36;-2.80;99.90
14172;DHT22;7165;52.388;4.928;2022-12-18T08:38:03;-2.80;99.90
14172;DHT22;7165;52.388;4.928;2022-12-18T08:40:29;-2.80;99.90
14172;DHT22;7165;52.388;4.928;2022-12-18T08:42:56;-2.80;99.90
14172;DHT22;7165;52.388;4.928;2022-12-18T08:45:40;-2.80;99.90
14172;DHT22;7165;52.388;4.928;2022-12-18T08:48:07;-2.80;99.90
14172;DHT22;7165;52.388;4.928;2022-12-18T08:50:35;-2.70;99.90
14172;DHT22;7165;52.388;4.928;2022-12-18T08:53:02;-2.70;99.90
14172;DHT22;7165;52.388;4.928;2022-12-18T08:55:28;-2.70;99.90
14172;DHT22;7165;52.388;4.928;2022-12-18T08:57:55;-2.60;99.90
14172;DHT22;7165;52.388;4.928;2022-12-18T09:00:22;-2.60;99.90
14172;DHT22;7165;52.388;4.928;2022-12-18T09:02:49;-2.60;99.90
14172;DHT22;7165;52.388;4.928;2022-12-18T09:05:15;-2.60;99.90
14172;DHT22;7165;52.388;4.928;2022-12-18T09:07:43;-2.60;99.90
14172;DHT22;7165;52.388;4.928;2022-12-18T09:10:10;-2.60;99.90
14172;DHT22;7165;52.388;4.928;2022-12-18T09:12:37;-2.50;99.90
14172;DHT22;7165;52.388;4.928;2022-12-18T09:15:06;-2.50;99.90
14172;DHT22;7165;52.388;4.928;2022-12-18T09:17:33;-2.50;99.90
14172;DHT22;7165;52.388;4.928;2022-12-18T09:19:59;-2.40;99.90
14172;DHT22;7165;52.388;4.928;2022-12-18T09:22:26;-2.40;99.90
14172;DHT22;7165;52.388;4.928;2022-12-18T09:24:54;-2.40;99.90
14172;DHT22;7165;52.388;4.928;2022-12-18T09:27:21;-2.30;99.90
14172;DHT22;7165;52.388;4.928;2022-12-18T09:29:47;-2.30;99.90
14172;DHT22;7165;52.388;4.928;2022-12-18T09:32:14;-2.20;99.90
14172;DHT22;7165;52.388;4.928;2022-12-18T09:34:43;-2.20;99.90
14172;DHT22;7165;52.388;4.928;2022-12-18T09:37:10;-2.20;99.90
14172;DHT22;7165;52.388;4.928;2022-12-18T09:39:36;-2.10;99.90
14172;DHT22;7165;52.388;4.928;2022-12-18T09:42:06;-2.10;99.90
14172;DHT22;7165;52.388;4.928;2022-12-18T09:44:40;-2.10;99.90
14172;DHT22;7165;52.388;4.928;2022-12-18T09:47:09;-2.10;99.90
14172;DHT22;7165;52.388;4.928;2022-12-18T09:49:42;-2.10;99.90
14172;DHT22;7165;52.388;4.928;2022-12-18T09:52:14;-2.10;99.90
14172;DHT22;7165;52.388;4.928;2022-12-18T09:54:44;-2.00;99.90
14172;DHT22;7165;52.388;4.928;2022-12-18T09:57:15;-2.00;99.90
14172;DHT22;7165;52.388;4.928;2022-12-18T09:59:47;-2.00;99.90
14172;DHT22;7165;52.388;4.928;2022-12-18T10:02:17;-2.00;99.90
14172;DHT22;7165;52.388;4.928;2022-12-18T10:04:50;-1.90;99.90
14172;DHT22;7165;52.388;4.928;2022-12-18T10:07:26;-1.90;99.90
14172;DHT22;7165;52.388;4.928;2022-12-18T10:10:00;-1.80;99.90
14172;DHT22;7165;52.388;4.928;2022-12-18T10:12:36;-1.80;99.90
14172;DHT22;7165;52.388;4.928;2022-12-18T10:15:08;-1.80;99.90
14172;DHT22;7165;52.388;4.928;2022-12-18T10:17:43;-1.80;99.90
14172;DHT22;7165;52.388;4.928;2022-12-18T10:20:17;-1.70;99.90
14172;DHT22;7165;52.388;4.928;2022-12-18T10:22:52;-1.70;99.90
14172;DHT22;7165;52.388;4.928;2022-12-18T10:25:23;-1.70;99.90
14172;DHT22;7165;52.388;4.928;2022-12-18T10:27:55;-1.60;99.90
14172;DHT22;7165;52.388;4.928;2022-12-18T10:30:23;-1.60;99.90
14172;DHT22;7165;52.388;4.928;2022-12-18T10:32:51;-1.50;99.90
14172;DHT22;7165;52.388;4.928;2022-12-18T10:35:20;-1.50;99.90
14172;DHT22;7165;52.388;4.928;2022-12-18T10:38:00;-1.50;99.90
14172;DHT22;7165;52.388;4.928;2022-12-18T10:40:27;-1.50;99.90
14172;DHT22;7165;52.388;4.928;2022-12-18T10:43:05;-1.40;99.90
14172;DHT22;7165;52.388;4.928;2022-12-18T10:45:37;-1.40;99.90
14172;DHT22;7165;52.388;4.928;2022-12-18T10:48:04;-1.30;99.90
14172;DHT22;7165;52.388;4.928;2022-12-18T10:50:33;-1.30;99.90
14172;DHT22;7165;52.388;4.928;2022-12-18T10:53:01;-1.20;99.90
14172;DHT22;7165;52.388;4.928;2022-12-18T10:55:32;-1.20;99.90
14172;DHT22;7165;52.388;4.928;2022-12-18T10:58:20;-1.10;99.90
14172;DHT22;7165;52.388;4.928;2022-12-18T11:01:06;-1.10;99.90
14172;DHT22;7165;52.388;4.928;2022-12-18T11:03:35;-1.10;99.90
14172;DHT22;7165;52.388;4.928;2022-12-18T11:06:04;-1.10;99.90
14172;DHT22;7165;52.388;4.928;2022-12-18T11:08:32;-1.10;99.90
14172;DHT22;7165;52.388;4.928;2022-12-18T11:10:58;-1.10;99.90
14172;DHT22;7165;52.388;4.928;2022-12-18T11:13:28;-1.00;99.90
14172;DHT22;7165;52.388;4.928;2022-12-18T11:15:56;-1.00;99.90
14172;DHT22;7165;52.388;4.928;2022-12-18T11:18:26;-0.90;99.90
14172;DHT22;7165;52.388;4.928;2022-12-18T11:20:56;-0.90;99.90
14172;DHT22;7165;52.388;4.928;2022-12-18T11:23:24;-0.90;99.90
14172;DHT22;7165;52.388;4.928;2022-12-18T11:25:53;-0.80;99.90
14172;DHT22;7165;52.388;4.928;2022-12-18T11:28:39;-0.70;99.90
14172;DHT22;7165;52.388;4.928;2022-12-18T11:31:20;-0.80;99.90
14172;DHT22;7165;52.388;4.928;2022-12-18T11:33:55;-0.70;99.90
14172;DHT22;7165;52.388;4.928;2022-12-18T11:36:23;-0.70;99.90
14172;DHT22;7165;52.388;4.928;2022-12-18T11:38:53;-0.60;99.90
14172;DHT22;7165;52.388;4.928;2022-12-18T11:41:25;-0.60;99.90
14172;DHT22;7165;52.388;4.928;2022-12-18T11:44:19;-0.50;99.90
14172;DHT22;7165;52.388;4.928;2022-12-18T11:46:55;-0.50;99.90
14172;DHT22;7165;52.388;4.928;2022-12-18T11:49:27;-0.40;99.90
14172;DHT22;7165;52.388;4.928;2022-12-18T11:51:58;-0.40;99.90
14172;DHT22;7165;52.388;4.928;2022-12-18T11:54:26;-0.40;99.90
14172;DHT22;7165;52.388;4.928;2022-12-18T11:56:56;-0.40;99.90
14172;DHT22;7165;52.388;4.928;2022-12-18T11:59:32;-0.40;99.90
14172;DHT22;7165;52.388;4.928;2022-12-18T12:02:11;-0.40;99.90
14172;DHT22;7165;52.388;4.928;2022-12-18T12:04:56;-0.40;99.90
14172;DHT22;7165;52.388;4.928;2022-12-18T12:07:36;-0.40;99.90
14172;DHT22;7165;52.388;4.928;2022-12-18T12:10:16;-0.30;99.90
14172;DHT22;7165;52.388;4.928;2022-12-18T12:12:56;-0.20;99.90
14172;DHT22;7165;52.388;4.928;2022-12-18T12:15:33;-0.20;99.90
14172;DHT22;7165;52.388;4.928;2022-12-18T12:18:09;-0.20;99.90
14172;DHT22;7165;52.388;4.928;2022-12-18T12:20:46;-0.20;99.90
14172;DHT22;7165;52.388;4.928;2022-12-18T12:23:23;-0.10;99.90
14172;DHT22;7165;52.388;4.928;2022-12-18T12:25:56;-0.10;99.90
14172;DHT22;7165;52.388;4.928;2022-12-18T12:28:38;-0.10;99.90
14172;DHT22;7165;52.388;4.928;2022-12-18T12:31:18;0.00;99.90
14172;DHT22;7165;52.388;4.928;2022-12-18T12:33:56;0.00;99.90
14172;DHT22;7165;52.388;4.928;2022-12-18T12:36:32;0.00;99.90
14172;DHT22;7165;52.388;4.928;2022-12-18T12:39:07;0.00;99.90
14172;DHT22;7165;52.388;4.928;2022-12-18T12:41:37;0.10;99.90
14172;DHT22;7165;52.388;4.928;2022-12-18T12:44:24;0.10;99.90
14172;DHT22;7165;52.388;4.928;2022-12-18T12:46:57;0.20;99.90
14172;DHT22;7165;52.388;4.928;2022-12-18T12:49:27;0.20;99.90
14172;DHT22;7165;52.388;4.928;2022-12-18T12:52:03;0.20;99.90
14172;DHT22;7165;52.388;4.928;2022-12-18T12:54:32;0.20;99.90
14172;DHT22;7165;52.388;4.928;2022-12-18T12:57:02;0.20;99.90
14172;DHT22;7165;52.388;4.928;2022-12-18T12:59:36;0.20;99.90
14172;DHT22;7165;52.388;4.928;2022-12-18T13:02:16;0.20;99.90
14172;DHT22;7165;52.388;4.928;2022-12-18T13:04:49;0.20;99.90
14172;DHT22;7165;52.388;4.928;2022-12-18T13:07:25;0.20;99.90
14172;DHT22;7165;52.388;4.928;2022-12-18T13:10:22;0.20;99.90
14172;DHT22;7165;52.388;4.928;2022-12-18T13:12:54;0.30;99.90
14172;DHT22;7165;52.388;4.928;2022-12-18T13:15:26;0.30;99.90
14172;DHT22;7165;52.388;4.928;2022-12-18T13:18:23;0.30;99.90
14172;DHT22;7165;52.388;4.928;2022-12-18T13:21:02;0.30;99.90
14172;DHT22;7165;52.388;4.928;2022-12-18T13:23:32;0.30;99.90
14172;DHT22;7165;52.388;4.928;2022-12-18T13:26:00;0.30;99.90
14172;DHT22;7165;52.388;4.928;2022-12-18T13:28:51;0.30;99.90
14172;DHT22;7165;52.388;4.928;2022-12-18T13:34:35;0.20;99.90
14172;DHT22;7165;52.388;4.928;2022-12-18T13:37:39;0.20;99.90
14172;DHT22;7165;52.388;4.928;2022-12-18T13:43:33;0.30;99.90
14172;DHT22;7165;52.388;4.928;2022-12-18T13:46:06;0.30;99.90
14172;DHT22;7165;52.388;4.928;2022-12-18T13:48:51;0.30;99.90
14172;DHT22;7165;52.388;4.928;2022-12-18T13:51:20;0.30;99.90
14172;DHT22;7165;52.388;4.928;2022-12-18T13:53:50;0.30;99.90
14172;DHT22;7165;52.388;4.928;2022-12-18T13:56:18;0.30;99.90
14172;DHT22;7165;52.388;4.928;2022-12-18T13:58:45;0.30;99.90
14172;DHT22;7165;52.388;4.928;2022-12-18T14:01:24;0.30;99.90
14172;DHT22;7165;52.388;4.928;2022-12-18T14:03:51;0.30;99.90
14172;DHT22;7165;52.388;4.928;2022-12-18T14:06:17;0.30;99.90
14172;DHT22;7165;52.388;4.928;2022-12-18T14:08:46;0.30;99.90
14172;DHT22;7165;52.388;4.928;2022-12-18T14:11:20;0.30;99.90
14172;DHT22;7165;52.388;4.928;2022-12-18T14:13:48;0.30;99.90
14172;DHT22;7165;52.388;4.928;2022-12-18T14:16:16;0.40;99.90
14172;DHT22;7165;52.388;4.928;2022-12-18T14:18:45;0.40;99.90
14172;DHT22;7165;52.388;4.928;2022-12-18T14:21:20;0.40;99.90
14172;DHT22;7165;52.388;4.928;2022-12-18T14:23:49;0.40;99.90
14172;DHT22;7165;52.388;4.928;2022-12-18T14:26:29;0.40;99.90
14172;DHT22;7165;52.388;4.928;2022-12-18T14:28:57;0.40;99.90
14172;DHT22;7165;52.388;4.928;2022-12-18T14:31:27;0.40;99.90
14172;DHT22;7165;52.388;4.928;2022-12-18T14:33:55;0.40;99.90
14172;DHT22;7165;52.388;4.928;2022-12-18T14:36:23;0.40;99.90
14172;DHT22;7165;52.388;4.928;2022-12-18T14:38:52;0.40;99.90
14172;DHT22;7165;52.388;4.928;2022-12-18T14:41:21;0.50;99.90
14172;DHT22;7165;52.388;4.928;2022-12-18T14:43:50;0.50;99.90
14172;DHT22;7165;52.388;4.928;2022-12-18T14:46:29;0.40;99.90
14172;DHT22;7165;52.388;4.928;2022-12-18T14:48:56;0.40;99.90
14172;DHT22;7165;52.388;4.928;2022-12-18T14:51:27;0.40;99.90
14172;DHT22;7165;52.388;4.928;2022-12-18T14:53:57;0.50;99.90
14172;DHT22;7165;52.388;4.928;2022-12-18T14:56:27;0.40;99.90
14172;DHT22;7165;52.388;4.928;2022-12-18T14:58:55;0.50;99.90
14172;DHT22;7165;52.388;4.928;2022-12-18T15:01:28;0.50;99.90
14172;DHT22;7165;52.388;4.928;2022-12-18T15:03:56;0.50;99.90
14172;DHT22;7165;52.388;4.928;2022-12-18T15:06:27;0.50;99.90
14172;DHT22;7165;52.388;4.928;2022-12-18T15:08:57;0.50;99.90
14172;DHT22;7165;52.388;4.928;2022-12-18T15:14:33;0.50;99.90
14172;DHT22;7165;52.388;4.928;2022-12-18T15:17:01;0.60;99.90
14172;DHT22;7165;52.388;4.928;2022-12-18T15:19:34;0.60;99.90
14172;DHT22;7165;52.388;4.928;2022-12-18T15:22:02;0.60;99.90
14172;DHT22;7165;52.388;4.928;2022-12-18T15:24:32;0.60;99.90
14172;DHT22;7165;52.388;4.928;2022-12-18T15:26:59;0.60;99.90
14172;DHT22;7165;52.388;4.928;2022-12-18T15:29:26;0.60;99.90
14172;DHT22;7165;52.388;4.928;2022-12-18T15:32:01;0.60;99.90
14172;DHT22;7165;52.388;4.928;2022-12-18T15:34:28;0.70;99.90
14172;DHT22;7165;52.388;4.928;2022-12-18T15:36:55;0.70;99.90
14172;DHT22;7165;52.388;4.928;2022-12-18T15:39:22;0.70;99.90
14172;DHT22;7165;52.388;4.928;2022-12-18T15:41:50;0.60;99.90
14172;DHT22;7165;52.388;4.928;2022-12-18T15:44:43;0.70;99.90
14172;DHT22;7165;52.388;4.928;2022-12-18T15:47:11;0.70;99.90
14172;DHT22;7165;52.388;4.928;2022-12-18T15:49:38;0.70;99.90
14172;DHT22;7165;52.388;4.928;2022-12-18T15:52:05;0.70;99.90
14172;DHT22;7165;52.388;4.928;2022-12-18T15:54:32;0.70;99.90
14172;DHT22;7165;52.388;4.928;2022-12-18T15:57:18;0.70;99.90
14172;DHT22;7165;52.388;4.928;2022-12-18T15:59:51;0.70;99.90
14172;DHT22;7165;52.388;4.928;2022-12-18T16:02:19;0.70;99.90
14172;DHT22;7165;52.388;4.928;2022-12-18T16:04:46;0.70;99.90
14172;DHT22;7165;52.388;4.928;2022-12-18T16:07:12;0.70;99.90
14172;DHT22;7165;52.388;4.928;2022-12-18T16:09:39;0.70;99.90
14172;DHT22;7165;52.388;4.928;2022-12-18T16:12:15;0.80;99.90
14172;DHT22;7165;52.388;4.928;2022-12-18T16:14:44;0.80;99.90
14172;DHT22;7165;52.388;4.928;2022-12-18T16:17:12;0.80;99.90
14172;DHT22;7165;52.388;4.928;2022-12-18T16:19:39;0.80;99.90